sensor_id;sensor_type;location;lat;lon;timestamp;P1;durP1;ratioP1;P2;durP2;ratioP2
40959;SDS011;27842;52.272;8.052;2022-12-07T00:01:15;27.03;;;15.80;;
40959;SDS011;27842;52.272;8.052;2022-12-07T00:03:43;27.40;;;16.67;;
40959;SDS011;27842;52.272;8.052;2022-12-07T00:06:11;24.90;;;14.50;;
40959;SDS011;27842;52.272;8.052;2022-12-07T00:08:38;24.93;;;14.63;;
40959;SDS011;27842;52.272;8.052;2022-12-07T00:11:14;25.83;;;14.63;;
40959;SDS011;27842;52.272;8.052;2022-12-07T00:13:45;25.13;;;14.67;;
40959;SDS011;27842;52.272;8.052;2022-12-07T00:16:12;23.63;;;12.80;;
40959;SDS011;27842;52.272;8.052;2022-12-07T00:18:43;24.03;;;14.47;;
40959;SDS011;27842;52.272;8.052;2022-12-07T00:21:10;26.73;;;14.00;;
40959;SDS011;27842;52.272;8.052;2022-12-07T00:23:47;23.10;;;13.67;;
40959;SDS011;27842;52.272;8.052;2022-12-07T00:26:24;24.00;;;13.03;;
40959;SDS011;27842;52.272;8.052;2022-12-07T00:28:52;23.33;;;12.70;;
40959;SDS011;27842;52.272;8.052;2022-12-07T00:31:20;25.23;;;12.80;;
40959;SDS011;27842;52.272;8.052;2022-12-07T00:33:51;21.77;;;12.37;;
40959;SDS011;27842;52.272;8.052;2022-12-07T00:36:21;24.33;;;12.73;;
40959;SDS011;27842;52.272;8.052;2022-12-07T00:38:47;24.63;;;13.40;;
40959;SDS011;27842;52.272;8.052;2022-12-07T00:41:14;22.77;;;12.37;;
40959;SDS011;27842;52.272;8.052;2022-12-07T00:43:42;22.20;;;12.60;;
40959;SDS011;27842;52.272;8.052;2022-12-07T00:46:09;23.53;;;12.60;;
40959;SDS011;27842;52.272;8.052;2022-12-07T00:48:35;23.73;;;13.40;;
40959;SDS011;27842;52.272;8.052;2022-12-07T00:51:01;23.93;;;13.47;;
40959;SDS011;27842;52.272;8.052;2022-12-07T00:53:27;25.93;;;12.73;;
40959;SDS011;27842;52.272;8.052;2022-12-07T00:55:53;23.20;;;13.00;;
40959;SDS011;27842;52.272;8.052;2022-12-07T00:58:21;21.83;;;12.03;;
40959;SDS011;27842;52.272;8.052;2022-12-07T01:00:47;21.07;;;11.23;;
40959;SDS011;27842;52.272;8.052;2022-12-07T01:03:14;23.53;;;11.67;;
40959;SDS011;27842;52.272;8.052;2022-12-07T01:05:40;23.47;;;11.33;;
40959;SDS011;27842;52.272;8.052;2022-12-07T01:08:15;21.33;;;11.17;;
40959;SDS011;27842;52.272;8.052;2022-12-07T01:10:40;21.37;;;11.10;;
40959;SDS011;27842;52.272;8.052;2022-12-07T01:13:06;20.73;;;10.20;;
40959;SDS011;27842;52.272;8.052;2022-12-07T01:15:31;20.83;;;9.93;;
40959;SDS011;27842;52.272;8.052;2022-12-07T01:17:57;19.43;;;9.77;;
40959;SDS011;27842;52.272;8.052;2022-12-07T01:20:23;25.63;;;10.27;;
40959;SDS011;27842;52.272;8.052;2022-12-07T01:22:48;18.93;;;9.77;;
40959;SDS011;27842;52.272;8.052;2022-12-07T01:25:14;18.43;;;9.07;;
40959;SDS011;27842;52.272;8.052;2022-12-07T01:27:40;20.20;;;10.13;;
40959;SDS011;27842;52.272;8.052;2022-12-07T01:30:06;17.90;;;9.23;;
40959;SDS011;27842;52.272;8.052;2022-12-07T01:32:32;20.00;;;9.50;;
40959;SDS011;27842;52.272;8.052;2022-12-07T01:34:58;20.97;;;9.17;;
40959;SDS011;27842;52.272;8.052;2022-12-07T01:37:24;18.10;;;8.57;;
40959;SDS011;27842;52.272;8.052;2022-12-07T01:42:25;17.37;;;8.50;;
40959;SDS011;27842;52.272;8.052;2022-12-07T01:47:55;17.83;;;8.63;;
40959;SDS011;27842;52.272;8.052;2022-12-07T01:50:23;17.17;;;8.47;;
40959;SDS011;27842;52.272;8.052;2022-12-07T01:55:18;16.53;;;7.77;;
40959;SDS011;27842;52.272;8.052;2022-12-07T01:57:45;18.00;;;7.90;;
40959;SDS011;27842;52.272;8.052;2022-12-07T02:00:14;20.23;;;8.20;;
40959;SDS011;27842;52.272;8.052;2022-12-07T02:02:45;17.23;;;7.70;;
40959;SDS011;27842;52.272;8.052;2022-12-07T02:05:15;16.40;;;7.57;;
40959;SDS011;27842;52.272;8.052;2022-12-07T02:07:42;20.37;;;8.03;;
40959;SDS011;27842;52.272;8.052;2022-12-07T02:10:21;18.10;;;8.17;;
40959;SDS011;27842;52.272;8.052;2022-12-07T02:12:51;19.03;;;7.50;;
40959;SDS011;27842;52.272;8.052;2022-12-07T02:15:20;15.50;;;8.00;;
40959;SDS011;27842;52.272;8.052;2022-12-07T02:18:01;17.40;;;7.30;;
40959;SDS011;27842;52.272;8.052;2022-12-07T02:23:45;18.37;;;7.53;;
40959;SDS011;27842;52.272;8.052;2022-12-07T02:29:17;15.83;;;6.33;;
40959;SDS011;27842;52.272;8.052;2022-12-07T02:34:22;17.33;;;6.90;;
40959;SDS011;27842;52.272;8.052;2022-12-07T02:36:57;15.15;;;6.07;;
40959;SDS011;27842;52.272;8.052;2022-12-07T02:42:39;17.13;;;6.83;;
40959;SDS011;27842;52.272;8.052;2022-12-07T02:45:10;15.90;;;6.87;;
40959;SDS011;27842;52.272;8.052;2022-12-07T02:47:38;18.05;;;6.53;;
40959;SDS011;27842;52.272;8.052;2022-12-07T02:50:06;18.97;;;8.57;;
40959;SDS011;27842;52.272;8.052;2022-12-07T02:52:32;17.77;;;6.63;;
40959;SDS011;27842;52.272;8.052;2022-12-07T02:54:58;17.80;;;6.30;;
40959;SDS011;27842;52.272;8.052;2022-12-07T03:00:06;14.87;;;6.37;;
40959;SDS011;27842;52.272;8.052;2022-12-07T03:13:32;14.77;;;5.57;;
40959;SDS011;27842;52.272;8.052;2022-12-07T03:16:25;13.93;;;4.90;;
40959;SDS011;27842;52.272;8.052;2022-12-07T03:18:58;12.73;;;4.70;;
40959;SDS011;27842;52.272;8.052;2022-12-07T03:21:38;12.07;;;4.40;;
40959;SDS011;27842;52.272;8.052;2022-12-07T03:24:08;16.20;;;5.27;;
40959;SDS011;27842;52.272;8.052;2022-12-07T03:26:40;11.10;;;3.77;;
40959;SDS011;27842;52.272;8.052;2022-12-07T03:29:11;12.13;;;3.90;;
40959;SDS011;27842;52.272;8.052;2022-12-07T03:31:48;12.35;;;3.88;;
40959;SDS011;27842;52.272;8.052;2022-12-07T03:34:30;9.93;;;3.40;;
40959;SDS011;27842;52.272;8.052;2022-12-07T03:37:22;10.63;;;3.50;;
40959;SDS011;27842;52.272;8.052;2022-12-07T03:40:08;14.80;;;4.00;;
40959;SDS011;27842;52.272;8.052;2022-12-07T03:42:39;11.80;;;3.50;;
40959;SDS011;27842;52.272;8.052;2022-12-07T03:45:06;13.30;;;3.67;;
40959;SDS011;27842;52.272;8.052;2022-12-07T03:47:34;13.37;;;3.13;;
40959;SDS011;27842;52.272;8.052;2022-12-07T03:50:10;9.47;;;2.80;;
40959;SDS011;27842;52.272;8.052;2022-12-07T03:52:49;8.80;;;3.10;;
40959;SDS011;27842;52.272;8.052;2022-12-07T03:55:26;13.37;;;3.27;;
40959;SDS011;27842;52.272;8.052;2022-12-07T03:57:56;11.03;;;2.90;;
40959;SDS011;27842;52.272;8.052;2022-12-07T04:00:26;13.27;;;3.47;;
40959;SDS011;27842;52.272;8.052;2022-12-07T04:02:52;11.00;;;2.97;;
40959;SDS011;27842;52.272;8.052;2022-12-07T04:05:18;12.83;;;3.10;;
40959;SDS011;27842;52.272;8.052;2022-12-07T04:07:44;10.93;;;2.97;;
40959;SDS011;27842;52.272;8.052;2022-12-07T04:10:15;13.40;;;3.27;;
40959;SDS011;27842;52.272;8.052;2022-12-07T04:12:40;9.10;;;2.90;;
40959;SDS011;27842;52.272;8.052;2022-12-07T04:15:06;10.10;;;2.83;;
40959;SDS011;27842;52.272;8.052;2022-12-07T04:17:32;12.10;;;2.73;;
40959;SDS011;27842;52.272;8.052;2022-12-07T04:19:58;9.50;;;3.17;;
40959;SDS011;27842;52.272;8.052;2022-12-07T04:22:24;12.43;;;3.77;;
40959;SDS011;27842;52.272;8.052;2022-12-07T04:24:49;14.60;;;3.17;;
40959;SDS011;27842;52.272;8.052;2022-12-07T04:27:15;15.73;;;3.40;;
40959;SDS011;27842;52.272;8.052;2022-12-07T04:29:41;12.07;;;3.57;;
40959;SDS011;27842;52.272;8.052;2022-12-07T04:32:06;13.57;;;3.00;;
40959;SDS011;27842;52.272;8.052;2022-12-07T04:34:32;9.60;;;2.80;;
40959;SDS011;27842;52.272;8.052;2022-12-07T04:36:57;12.53;;;2.90;;
40959;SDS011;27842;52.272;8.052;2022-12-07T04:39:32;11.00;;;2.90;;
40959;SDS011;27842;52.272;8.052;2022-12-07T04:41:58;11.07;;;2.80;;
40959;SDS011;27842;52.272;8.052;2022-12-07T04:44:24;8.17;;;2.50;;
40959;SDS011;27842;52.272;8.052;2022-12-07T04:46:51;9.10;;;2.60;;
40959;SDS011;27842;52.272;8.052;2022-12-07T04:49:18;9.63;;;2.50;;
40959;SDS011;27842;52.272;8.052;2022-12-07T04:51:44;11.83;;;2.70;;
40959;SDS011;27842;52.272;8.052;2022-12-07T04:54:11;11.03;;;2.23;;
40959;SDS011;27842;52.272;8.052;2022-12-07T04:56:37;13.00;;;2.20;;
40959;SDS011;27842;52.272;8.052;2022-12-07T04:59:03;14.00;;;2.37;;
40959;SDS011;27842;52.272;8.052;2022-12-07T05:01:29;11.87;;;2.40;;
40959;SDS011;27842;52.272;8.052;2022-12-07T05:03:55;12.30;;;2.43;;
40959;SDS011;27842;52.272;8.052;2022-12-07T05:06:21;10.97;;;2.20;;
40959;SDS011;27842;52.272;8.052;2022-12-07T05:08:46;9.90;;;2.17;;
40959;SDS011;27842;52.272;8.052;2022-12-07T05:11:15;11.40;;;1.87;;
40959;SDS011;27842;52.272;8.052;2022-12-07T05:14:00;11.93;;;2.60;;
40959;SDS011;27842;52.272;8.052;2022-12-07T05:16:34;11.50;;;2.10;;
40959;SDS011;27842;52.272;8.052;2022-12-07T05:19:01;10.87;;;2.00;;
40959;SDS011;27842;52.272;8.052;2022-12-07T05:21:27;11.80;;;2.20;;
40959;SDS011;27842;52.272;8.052;2022-12-07T05:23:52;11.87;;;2.03;;
40959;SDS011;27842;52.272;8.052;2022-12-07T05:26:18;12.83;;;2.10;;
40959;SDS011;27842;52.272;8.052;2022-12-07T05:28:44;10.87;;;2.37;;
40959;SDS011;27842;52.272;8.052;2022-12-07T05:31:09;10.30;;;2.50;;
40959;SDS011;27842;52.272;8.052;2022-12-07T05:33:35;6.90;;;2.83;;
40959;SDS011;27842;52.272;8.052;2022-12-07T05:36:01;11.50;;;2.50;;
40959;SDS011;27842;52.272;8.052;2022-12-07T05:38:30;8.02;;;2.30;;
40959;SDS011;27842;52.272;8.052;2022-12-07T05:41:04;9.97;;;2.73;;
40959;SDS011;27842;52.272;8.052;2022-12-07T05:43:30;13.10;;;2.60;;
40959;SDS011;27842;52.272;8.052;2022-12-07T05:45:57;10.27;;;2.23;;
40959;SDS011;27842;52.272;8.052;2022-12-07T05:48:23;11.70;;;2.60;;
40959;SDS011;27842;52.272;8.052;2022-12-07T05:50:49;12.50;;;3.60;;
40959;SDS011;27842;52.272;8.052;2022-12-07T05:53:16;11.57;;;2.80;;
40959;SDS011;27842;52.272;8.052;2022-12-07T05:55:42;13.07;;;2.50;;
40959;SDS011;27842;52.272;8.052;2022-12-07T05:58:07;11.07;;;2.37;;
40959;SDS011;27842;52.272;8.052;2022-12-07T06:00:53;12.80;;;2.70;;
40959;SDS011;27842;52.272;8.052;2022-12-07T06:03:22;12.73;;;2.40;;
40959;SDS011;27842;52.272;8.052;2022-12-07T06:05:48;10.23;;;2.33;;
40959;SDS011;27842;52.272;8.052;2022-12-07T06:08:14;13.60;;;2.80;;
40959;SDS011;27842;52.272;8.052;2022-12-07T06:10:46;14.37;;;3.80;;
40959;SDS011;27842;52.272;8.052;2022-12-07T06:13:33;10.93;;;2.50;;
40959;SDS011;27842;52.272;8.052;2022-12-07T06:15:58;14.53;;;2.50;;
40959;SDS011;27842;52.272;8.052;2022-12-07T06:18:24;9.67;;;2.20;;
40959;SDS011;27842;52.272;8.052;2022-12-07T06:20:49;10.00;;;2.60;;
40959;SDS011;27842;52.272;8.052;2022-12-07T06:23:15;12.73;;;2.70;;
40959;SDS011;27842;52.272;8.052;2022-12-07T06:25:44;11.13;;;2.67;;
40959;SDS011;27842;52.272;8.052;2022-12-07T06:28:10;9.83;;;2.73;;
40959;SDS011;27842;52.272;8.052;2022-12-07T06:30:36;10.87;;;2.30;;
40959;SDS011;27842;52.272;8.052;2022-12-07T06:33:02;12.23;;;2.27;;
40959;SDS011;27842;52.272;8.052;2022-12-07T06:35:28;14.30;;;3.07;;
40959;SDS011;27842;52.272;8.052;2022-12-07T06:37:53;10.13;;;2.23;;
40959;SDS011;27842;52.272;8.052;2022-12-07T06:40:19;12.13;;;2.70;;
40959;SDS011;27842;52.272;8.052;2022-12-07T06:42:45;9.93;;;2.20;;
40959;SDS011;27842;52.272;8.052;2022-12-07T06:45:10;10.83;;;2.70;;
40959;SDS011;27842;52.272;8.052;2022-12-07T06:47:36;12.97;;;2.50;;
40959;SDS011;27842;52.272;8.052;2022-12-07T06:50:02;14.40;;;2.70;;
40959;SDS011;27842;52.272;8.052;2022-12-07T06:52:28;10.13;;;2.40;;
40959;SDS011;27842;52.272;8.052;2022-12-07T06:54:55;7.83;;;2.30;;
40959;SDS011;27842;52.272;8.052;2022-12-07T06:57:20;12.90;;;2.47;;
40959;SDS011;27842;52.272;8.052;2022-12-07T06:59:47;13.27;;;2.60;;
40959;SDS011;27842;52.272;8.052;2022-12-07T07:02:16;10.67;;;2.40;;
40959;SDS011;27842;52.272;8.052;2022-12-07T07:04:43;10.43;;;2.60;;
40959;SDS011;27842;52.272;8.052;2022-12-07T07:07:08;9.47;;;1.97;;
40959;SDS011;27842;52.272;8.052;2022-12-07T07:09:37;12.43;;;2.30;;
40959;SDS011;27842;52.272;8.052;2022-12-07T07:12:03;12.95;;;2.35;;
40959;SDS011;27842;52.272;8.052;2022-12-07T07:14:29;12.03;;;3.03;;
40959;SDS011;27842;52.272;8.052;2022-12-07T07:16:54;11.93;;;2.57;;
40959;SDS011;27842;52.272;8.052;2022-12-07T07:19:20;9.90;;;2.10;;
40959;SDS011;27842;52.272;8.052;2022-12-07T07:21:46;15.80;;;2.60;;
40959;SDS011;27842;52.272;8.052;2022-12-07T07:24:11;8.83;;;2.43;;
40959;SDS011;27842;52.272;8.052;2022-12-07T07:26:37;13.20;;;2.30;;
40959;SDS011;27842;52.272;8.052;2022-12-07T07:29:03;9.63;;;2.13;;
40959;SDS011;27842;52.272;8.052;2022-12-07T07:31:28;10.73;;;2.30;;
40959;SDS011;27842;52.272;8.052;2022-12-07T07:33:54;12.10;;;2.20;;
40959;SDS011;27842;52.272;8.052;2022-12-07T07:36:19;12.47;;;2.47;;
40959;SDS011;27842;52.272;8.052;2022-12-07T07:38:45;14.47;;;3.10;;
40959;SDS011;27842;52.272;8.052;2022-12-07T07:41:14;11.63;;;2.40;;
40959;SDS011;27842;52.272;8.052;2022-12-07T07:43:39;15.80;;;2.53;;
40959;SDS011;27842;52.272;8.052;2022-12-07T07:46:05;13.83;;;2.67;;
40959;SDS011;27842;52.272;8.052;2022-12-07T07:48:31;14.83;;;2.57;;
40959;SDS011;27842;52.272;8.052;2022-12-07T07:50:56;10.73;;;2.40;;
40959;SDS011;27842;52.272;8.052;2022-12-07T07:53:22;16.77;;;2.60;;
40959;SDS011;27842;52.272;8.052;2022-12-07T07:55:51;12.47;;;2.67;;
40959;SDS011;27842;52.272;8.052;2022-12-07T07:58:18;13.20;;;2.70;;
40959;SDS011;27842;52.272;8.052;2022-12-07T08:00:44;15.93;;;3.40;;
40959;SDS011;27842;52.272;8.052;2022-12-07T08:03:09;11.60;;;3.00;;
40959;SDS011;27842;52.272;8.052;2022-12-07T08:05:36;14.67;;;3.20;;
40959;SDS011;27842;52.272;8.052;2022-12-07T08:08:02;11.70;;;2.50;;
40959;SDS011;27842;52.272;8.052;2022-12-07T08:10:28;11.20;;;2.20;;
40959;SDS011;27842;52.272;8.052;2022-12-07T08:12:54;10.53;;;2.30;;
40959;SDS011;27842;52.272;8.052;2022-12-07T08:15:39;11.93;;;3.00;;
40959;SDS011;27842;52.272;8.052;2022-12-07T08:18:07;12.35;;;2.60;;
40959;SDS011;27842;52.272;8.052;2022-12-07T08:20:33;13.43;;;2.93;;
40959;SDS011;27842;52.272;8.052;2022-12-07T08:23:00;11.47;;;2.63;;
40959;SDS011;27842;52.272;8.052;2022-12-07T08:25:26;12.50;;;2.60;;
40959;SDS011;27842;52.272;8.052;2022-12-07T08:27:52;10.03;;;2.50;;
40959;SDS011;27842;52.272;8.052;2022-12-07T08:30:22;9.93;;;2.40;;
40959;SDS011;27842;52.272;8.052;2022-12-07T08:32:48;13.50;;;2.80;;
40959;SDS011;27842;52.272;8.052;2022-12-07T08:35:15;11.53;;;2.80;;
40959;SDS011;27842;52.272;8.052;2022-12-07T08:37:41;10.07;;;2.80;;
40959;SDS011;27842;52.272;8.052;2022-12-07T08:40:16;10.47;;;2.70;;
40959;SDS011;27842;52.272;8.052;2022-12-07T08:42:44;10.93;;;2.50;;
40959;SDS011;27842;52.272;8.052;2022-12-07T08:45:19;11.07;;;2.40;;
40959;SDS011;27842;52.272;8.052;2022-12-07T08:48:01;11.53;;;2.80;;
40959;SDS011;27842;52.272;8.052;2022-12-07T08:50:31;14.27;;;3.30;;
40959;SDS011;27842;52.272;8.052;2022-12-07T08:52:59;13.23;;;2.60;;
40959;SDS011;27842;52.272;8.052;2022-12-07T08:55:26;16.33;;;2.00;;
40959;SDS011;27842;52.272;8.052;2022-12-07T08:57:54;12.90;;;3.30;;
40959;SDS011;27842;52.272;8.052;2022-12-07T09:00:20;16.37;;;2.67;;
40959;SDS011;27842;52.272;8.052;2022-12-07T09:02:46;10.70;;;2.70;;
40959;SDS011;27842;52.272;8.052;2022-12-07T09:05:12;17.27;;;2.77;;
40959;SDS011;27842;52.272;8.052;2022-12-07T09:07:39;9.57;;;2.57;;
40959;SDS011;27842;52.272;8.052;2022-12-07T09:10:08;10.27;;;2.47;;
40959;SDS011;27842;52.272;8.052;2022-12-07T09:12:34;10.87;;;2.50;;
40959;SDS011;27842;52.272;8.052;2022-12-07T09:14:59;12.77;;;2.90;;
40959;SDS011;27842;52.272;8.052;2022-12-07T09:17:25;13.20;;;2.80;;
40959;SDS011;27842;52.272;8.052;2022-12-07T09:19:57;13.53;;;3.20;;
40959;SDS011;27842;52.272;8.052;2022-12-07T09:33:36;13.98;;;3.13;;
40959;SDS011;27842;52.272;8.052;2022-12-07T09:36:02;13.57;;;3.07;;
40959;SDS011;27842;52.272;8.052;2022-12-07T09:38:28;13.23;;;2.60;;
40959;SDS011;27842;52.272;8.052;2022-12-07T09:40:56;15.03;;;2.80;;
40959;SDS011;27842;52.272;8.052;2022-12-07T09:43:22;9.60;;;2.30;;
40959;SDS011;27842;52.272;8.052;2022-12-07T09:45:51;10.50;;;2.27;;
40959;SDS011;27842;52.272;8.052;2022-12-07T09:48:36;11.18;;;2.45;;
40959;SDS011;27842;52.272;8.052;2022-12-07T09:51:09;9.00;;;2.73;;
40959;SDS011;27842;52.272;8.052;2022-12-07T09:53:49;15.20;;;3.23;;
40959;SDS011;27842;52.272;8.052;2022-12-07T09:56:16;11.13;;;2.40;;
40959;SDS011;27842;52.272;8.052;2022-12-07T09:58:44;12.03;;;2.50;;
40959;SDS011;27842;52.272;8.052;2022-12-07T10:01:12;9.87;;;2.50;;
40959;SDS011;27842;52.272;8.052;2022-12-07T10:03:45;8.93;;;2.60;;
40959;SDS011;27842;52.272;8.052;2022-12-07T10:06:32;11.20;;;2.83;;
40959;SDS011;27842;52.272;8.052;2022-12-07T10:08:58;14.17;;;2.50;;
40959;SDS011;27842;52.272;8.052;2022-12-07T10:11:24;14.30;;;2.77;;
40959;SDS011;27842;52.272;8.052;2022-12-07T10:13:51;11.13;;;2.60;;
40959;SDS011;27842;52.272;8.052;2022-12-07T10:18:53;12.50;;;2.77;;
40959;SDS011;27842;52.272;8.052;2022-12-07T10:21:24;12.63;;;2.47;;
40959;SDS011;27842;52.272;8.052;2022-12-07T10:26:35;11.90;;;2.70;;
40959;SDS011;27842;52.272;8.052;2022-12-07T10:31:58;12.03;;;2.40;;
40959;SDS011;27842;52.272;8.052;2022-12-07T10:34:47;11.37;;;2.70;;
40959;SDS011;27842;52.272;8.052;2022-12-07T10:39:42;8.33;;;2.50;;
40959;SDS011;27842;52.272;8.052;2022-12-07T10:42:23;11.25;;;2.40;;
40959;SDS011;27842;52.272;8.052;2022-12-07T10:47:59;14.27;;;2.87;;
40959;SDS011;27842;52.272;8.052;2022-12-07T10:53:33;10.73;;;2.30;;
40959;SDS011;27842;52.272;8.052;2022-12-07T10:59:19;13.43;;;2.40;;
40959;SDS011;27842;52.272;8.052;2022-12-07T11:07:59;12.40;;;2.87;;
40959;SDS011;27842;52.272;8.052;2022-12-07T11:13:33;13.77;;;2.50;;
40959;SDS011;27842;52.272;8.052;2022-12-07T11:21:40;14.23;;;2.60;;
40959;SDS011;27842;52.272;8.052;2022-12-07T11:24:17;12.03;;;2.20;;
40959;SDS011;27842;52.272;8.052;2022-12-07T11:27:10;15.17;;;3.17;;
40959;SDS011;27842;52.272;8.052;2022-12-07T11:29:59;10.83;;;2.50;;
40959;SDS011;27842;52.272;8.052;2022-12-07T11:38:33;13.77;;;3.17;;
40959;SDS011;27842;52.272;8.052;2022-12-07T11:41:08;13.57;;;2.67;;
40959;SDS011;27842;52.272;8.052;2022-12-07T11:43:45;17.93;;;2.87;;
40959;SDS011;27842;52.272;8.052;2022-12-07T11:51:52;13.53;;;2.80;;
40959;SDS011;27842;52.272;8.052;2022-12-07T11:54:26;18.03;;;3.30;;
40959;SDS011;27842;52.272;8.052;2022-12-07T11:57:02;12.50;;;2.37;;
40959;SDS011;27842;52.272;8.052;2022-12-07T11:59:36;13.77;;;2.77;;
40959;SDS011;27842;52.272;8.052;2022-12-07T12:02:16;12.13;;;2.20;;
40959;SDS011;27842;52.272;8.052;2022-12-07T12:07:27;12.68;;;2.50;;
40959;SDS011;27842;52.272;8.052;2022-12-07T12:12:33;17.00;;;2.83;;
40959;SDS011;27842;52.272;8.052;2022-12-07T12:20:47;12.33;;;2.17;;
40959;SDS011;27842;52.272;8.052;2022-12-07T12:25:57;13.47;;;2.50;;
40959;SDS011;27842;52.272;8.052;2022-12-07T12:28:30;15.33;;;2.43;;
40959;SDS011;27842;52.272;8.052;2022-12-07T12:33:46;12.83;;;2.07;;
40959;SDS011;27842;52.272;8.052;2022-12-07T12:46:45;13.10;;;2.30;;
40959;SDS011;27842;52.272;8.052;2022-12-07T12:51:58;10.97;;;1.77;;
40959;SDS011;27842;52.272;8.052;2022-12-07T12:54:40;8.03;;;1.67;;
40959;SDS011;27842;52.272;8.052;2022-12-07T12:57:34;10.93;;;2.37;;
40959;SDS011;27842;52.272;8.052;2022-12-07T13:00:02;12.53;;;2.40;;
40959;SDS011;27842;52.272;8.052;2022-12-07T13:02:56;16.83;;;2.33;;
40959;SDS011;27842;52.272;8.052;2022-12-07T13:05:30;10.57;;;2.20;;
40959;SDS011;27842;52.272;8.052;2022-12-07T13:10:29;10.10;;;2.22;;
40959;SDS011;27842;52.272;8.052;2022-12-07T13:18:40;11.97;;;1.97;;
40959;SDS011;27842;52.272;8.052;2022-12-07T13:26:20;14.37;;;2.43;;
40959;SDS011;27842;52.272;8.052;2022-12-07T13:31:44;15.90;;;2.57;;
40959;SDS011;27842;52.272;8.052;2022-12-07T13:37:04;14.10;;;2.70;;
40959;SDS011;27842;52.272;8.052;2022-12-07T13:39:47;11.57;;;2.47;;
40959;SDS011;27842;52.272;8.052;2022-12-07T13:42:33;11.23;;;2.70;;
40959;SDS011;27842;52.272;8.052;2022-12-07T13:45:00;11.43;;;2.10;;
40959;SDS011;27842;52.272;8.052;2022-12-07T13:48:08;14.65;;;2.20;;
40959;SDS011;27842;52.272;8.052;2022-12-07T13:50:40;12.70;;;2.60;;
40959;SDS011;27842;52.272;8.052;2022-12-07T13:53:19;14.80;;;2.83;;
40959;SDS011;27842;52.272;8.052;2022-12-07T13:55:45;15.70;;;3.20;;
40959;SDS011;27842;52.272;8.052;2022-12-07T13:58:12;18.40;;;2.50;;
40959;SDS011;27842;52.272;8.052;2022-12-07T14:00:39;15.53;;;2.50;;
40959;SDS011;27842;52.272;8.052;2022-12-07T14:05:38;12.57;;;2.63;;
40959;SDS011;27842;52.272;8.052;2022-12-07T14:08:20;11.40;;;2.80;;
40959;SDS011;27842;52.272;8.052;2022-12-07T14:13:32;11.17;;;2.77;;
40959;SDS011;27842;52.272;8.052;2022-12-07T14:15:59;13.03;;;3.40;;
40959;SDS011;27842;52.272;8.052;2022-12-07T14:18:27;15.07;;;2.93;;
40959;SDS011;27842;52.272;8.052;2022-12-07T14:21:22;13.57;;;3.33;;
40959;SDS011;27842;52.272;8.052;2022-12-07T14:26:48;13.27;;;3.00;;
40959;SDS011;27842;52.272;8.052;2022-12-07T14:29:18;13.83;;;2.60;;
40959;SDS011;27842;52.272;8.052;2022-12-07T14:34:12;13.03;;;2.50;;
40959;SDS011;27842;52.272;8.052;2022-12-07T14:36:38;10.95;;;2.30;;
40959;SDS011;27842;52.272;8.052;2022-12-07T14:39:04;13.47;;;3.00;;
40959;SDS011;27842;52.272;8.052;2022-12-07T14:41:29;15.80;;;2.70;;
40959;SDS011;27842;52.272;8.052;2022-12-07T14:44:14;12.70;;;2.33;;
40959;SDS011;27842;52.272;8.052;2022-12-07T14:46:39;14.70;;;2.43;;
40959;SDS011;27842;52.272;8.052;2022-12-07T14:49:05;14.57;;;2.57;;
40959;SDS011;27842;52.272;8.052;2022-12-07T14:51:31;9.17;;;2.10;;
40959;SDS011;27842;52.272;8.052;2022-12-07T14:53:58;11.87;;;2.50;;
40959;SDS011;27842;52.272;8.052;2022-12-07T14:56:24;7.07;;;1.90;;
40959;SDS011;27842;52.272;8.052;2022-12-07T14:58:50;6.93;;;1.50;;
40959;SDS011;27842;52.272;8.052;2022-12-07T15:01:15;5.63;;;1.30;;
40959;SDS011;27842;52.272;8.052;2022-12-07T15:03:41;3.57;;;1.30;;
40959;SDS011;27842;52.272;8.052;2022-12-07T15:06:07;5.70;;;1.60;;
40959;SDS011;27842;52.272;8.052;2022-12-07T15:08:33;5.50;;;1.53;;
40959;SDS011;27842;52.272;8.052;2022-12-07T15:14:24;8.87;;;3.23;;
40959;SDS011;27842;52.272;8.052;2022-12-07T15:16:50;11.30;;;3.60;;
40959;SDS011;27842;52.272;8.052;2022-12-07T15:19:19;8.93;;;2.90;;
40959;SDS011;27842;52.272;8.052;2022-12-07T15:21:51;8.53;;;2.77;;
40959;SDS011;27842;52.272;8.052;2022-12-07T15:24:17;7.33;;;2.33;;
40959;SDS011;27842;52.272;8.052;2022-12-07T15:26:43;8.60;;;2.73;;
40959;SDS011;27842;52.272;8.052;2022-12-07T15:29:09;13.63;;;3.40;;
40959;SDS011;27842;52.272;8.052;2022-12-07T15:31:36;15.87;;;5.53;;
40959;SDS011;27842;52.272;8.052;2022-12-07T15:34:02;18.07;;;6.50;;
40959;SDS011;27842;52.272;8.052;2022-12-07T15:36:29;17.70;;;6.67;;
40959;SDS011;27842;52.272;8.052;2022-12-07T15:38:56;17.37;;;6.23;;
40959;SDS011;27842;52.272;8.052;2022-12-07T15:41:22;14.50;;;4.67;;
40959;SDS011;27842;52.272;8.052;2022-12-07T15:43:48;17.23;;;5.33;;
40959;SDS011;27842;52.272;8.052;2022-12-07T15:46:33;14.87;;;4.23;;
40959;SDS011;27842;52.272;8.052;2022-12-07T15:49:00;15.67;;;4.77;;
40959;SDS011;27842;52.272;8.052;2022-12-07T15:51:26;16.17;;;5.43;;
40959;SDS011;27842;52.272;8.052;2022-12-07T15:53:52;16.57;;;4.60;;
40959;SDS011;27842;52.272;8.052;2022-12-07T15:56:18;15.10;;;4.40;;
40959;SDS011;27842;52.272;8.052;2022-12-07T15:58:44;13.73;;;4.30;;
40959;SDS011;27842;52.272;8.052;2022-12-07T16:01:10;18.60;;;5.57;;
40959;SDS011;27842;52.272;8.052;2022-12-07T16:03:40;12.80;;;3.77;;
40959;SDS011;27842;52.272;8.052;2022-12-07T16:06:06;14.10;;;3.03;;
40959;SDS011;27842;52.272;8.052;2022-12-07T16:08:32;12.43;;;3.20;;
40959;SDS011;27842;52.272;8.052;2022-12-07T16:10:58;13.30;;;3.50;;
40959;SDS011;27842;52.272;8.052;2022-12-07T16:13:23;12.30;;;3.10;;
40959;SDS011;27842;52.272;8.052;2022-12-07T16:15:49;13.50;;;3.13;;
40959;SDS011;27842;52.272;8.052;2022-12-07T16:18:15;11.83;;;3.13;;
40959;SDS011;27842;52.272;8.052;2022-12-07T16:20:40;14.63;;;3.43;;
40959;SDS011;27842;52.272;8.052;2022-12-07T16:23:06;14.20;;;3.07;;
40959;SDS011;27842;52.272;8.052;2022-12-07T16:25:32;16.60;;;3.07;;
40959;SDS011;27842;52.272;8.052;2022-12-07T16:27:58;14.83;;;3.07;;
40959;SDS011;27842;52.272;8.052;2022-12-07T16:30:23;16.20;;;3.20;;
40959;SDS011;27842;52.272;8.052;2022-12-07T16:32:51;16.40;;;3.20;;
40959;SDS011;27842;52.272;8.052;2022-12-07T16:35:17;11.47;;;3.30;;
40959;SDS011;27842;52.272;8.052;2022-12-07T16:37:42;15.80;;;3.43;;
40959;SDS011;27842;52.272;8.052;2022-12-07T16:40:09;15.77;;;4.10;;
40959;SDS011;27842;52.272;8.052;2022-12-07T16:42:35;14.13;;;2.80;;
40959;SDS011;27842;52.272;8.052;2022-12-07T16:45:01;10.57;;;3.27;;
40959;SDS011;27842;52.272;8.052;2022-12-07T16:47:28;11.70;;;2.63;;
40959;SDS011;27842;52.272;8.052;2022-12-07T16:49:53;14.23;;;3.00;;
40959;SDS011;27842;52.272;8.052;2022-12-07T16:52:19;13.17;;;2.40;;
40959;SDS011;27842;52.272;8.052;2022-12-07T16:54:46;13.87;;;3.10;;
40959;SDS011;27842;52.272;8.052;2022-12-07T16:57:13;13.43;;;3.50;;
40959;SDS011;27842;52.272;8.052;2022-12-07T16:59:38;15.33;;;3.30;;
40959;SDS011;27842;52.272;8.052;2022-12-07T17:02:04;15.53;;;4.30;;
40959;SDS011;27842;52.272;8.052;2022-12-07T17:04:31;11.97;;;2.90;;
40959;SDS011;27842;52.272;8.052;2022-12-07T17:06:57;15.50;;;4.23;;
40959;SDS011;27842;52.272;8.052;2022-12-07T17:09:23;14.50;;;4.93;;
40959;SDS011;27842;52.272;8.052;2022-12-07T17:11:49;12.63;;;3.33;;
40959;SDS011;27842;52.272;8.052;2022-12-07T17:14:15;11.07;;;3.20;;
40959;SDS011;27842;52.272;8.052;2022-12-07T17:16:59;11.43;;;3.33;;
40959;SDS011;27842;52.272;8.052;2022-12-07T17:19:25;16.23;;;4.80;;
40959;SDS011;27842;52.272;8.052;2022-12-07T17:21:51;10.37;;;3.70;;